Hovedside
METAR-TAF:

METAR-TAF

Lufthavner :

Keetmanshoop, Namibia

breddegrad: 26-32S, lengdegrad: 018-07E, høyde over havet: 1067 m

Gjeldene værobservasjon

Denne rapporten ble laget for 22 minutter siden, klokken 02:00 UTC
Vind 9 kt fra Nordøst
Temperatur 15°C
Luftfuktighet 33%
Trykk 1025 hPa

METAR: FYKT 140200Z AUTO 05009KT //// // ////// 15/M01 Q1025

Tid: 04:22 (02:22 UTC)

Varsel

Denne rapporten ble laget for 10 timer og 22 minutter siden, klokken 16:00 UTC
Varsel gyldig fra 13. klokken 18 UTC til 14. klokken 18 UTC
Vind 3 kt fra Nord-nordøst
Sikt 10 km eller mer
ingen skyer under 1500 m og ingen bygeskyer

TAF: FYKT 131600Z 1318/1418 03003KT CAVOK

Værobservasjoner og værvarsel for over 4000 flyplasser (METAR- og TAF-rapporter).

Tilgjengelige stasjoner er representert av de røde og gule prikkene på kartet.

Hold musepekeren over prikken for å se navnet på stasjonen.

Klikk så for å se værobservasjoner og -varsler.

For å forandre kartet kan du klikke på den grønne knappen med svart kryss for å zoome inn, på den grønne knappen med strek for å zoome ut, eller på de grønne pilene for å se tilstøtende kart.


METAR-TAF: